Time;durP1;ratioP1;P1;durP2;ratioP2;P2;SDS_P1;SDS_P2;PMS_P1;PMS_P2;Temp;Humidity;BMP_temperature;BMP_pressure;BME280_temperature;BME280_humidity;BME280_pressure;Samples;Min_cycle;Max_cycle;Signal;HPM_P1;HPM_P2
2022/07/04 00:02:05;;;;;;;7.13;2.10;;;;;;;;;;5073694;28;20029;-71
2022/07/04 00:04:30;;;;;;;3.60;2.05;;;;;;;;;;5075569;28;20032;-72
2022/07/04 00:06:55;;;;;;;4.28;2.45;;;;;;;;;;5080840;28;20451;-71
2022/07/04 00:09:21;;;;;;;3.72;2.00;;;;;;;;;;5079689;28;20024;-71
2022/07/04 00:11:46;;;;;;;5.93;2.00;;;;;;;;;;5081094;28;20109;-72
2022/07/04 00:14:11;;;;;;;6.43;2.08;;;;;;;;;;5087574;28;20079;-71
2022/07/04 00:16:36;;;;;;;5.18;2.30;;;;;;;;;;5081177;28;20142;-71
2022/07/04 00:19:02;;;;;;;6.75;2.38;;;;;;;;;;5085282;28;20388;-71
2022/07/04 00:21:27;;;;;;;6.53;2.28;;;;;;;;;;5086947;28;20056;-71
2022/07/04 00:23:52;;;;;;;9.10;2.28;;;;;;;;;;5085724;28;20017;-71
2022/07/04 00:26:18;;;;;;;8.13;2.40;;;;;;;;;;5075142;28;20025;-71
2022/07/04 00:28:43;;;;;;;12.80;2.45;;;;;;;;;;5076965;28;20089;-71
2022/07/04 00:31:08;;;;;;;6.25;2.60;;;;;;;;;;5074510;28;20530;-71
2022/07/04 00:33:33;;;;;;;6.78;2.40;;;;;;;;;;5075922;28;20445;-71
2022/07/04 00:35:59;;;;;;;6.05;2.30;;;;;;;;;;5073079;28;20012;-71
2022/07/04 00:38:24;;;;;;;5.25;2.22;;;;;;;;;;5076581;28;20070;-71
2022/07/04 00:40:50;;;;;;;9.40;2.42;;;;;;;;;;5078293;28;20047;-72
2022/07/04 00:43:21;;;;;;;6.28;2.38;;;;;;;;;;5083405;28;20036;-71
2022/07/04 00:45:46;;;;;;;7.20;2.67;;;;;;;;;;5075341;28;20028;-70
2022/07/04 00:48:11;;;;;;;5.55;2.38;;;;;;;;;;5078880;28;20628;-71
2022/07/04 00:50:37;;;;;;;8.23;2.72;;;;;;;;;;5074272;28;20013;-70
2022/07/04 00:53:02;;;;;;;7.80;2.83;;;;;;;;;;5074441;28;20035;-72
2022/07/04 00:55:28;;;;;;;10.50;2.85;;;;;;;;;;5072074;28;20064;-71
2022/07/04 00:57:53;;;;;;;6.68;2.53;;;;;;;;;;5071735;28;20027;-71
2022/07/04 01:00:19;;;;;;;7.28;2.60;;;;;;;;;;5075620;28;20025;-71
2022/07/04 01:02:44;;;;;;;8.50;2.70;;;;;;;;;;5073567;28;20479;-71
2022/07/04 01:05:10;;;;;;;5.22;2.20;;;;;;;;;;5074819;28;20009;-71
2022/07/04 01:07:35;;;;;;;6.18;2.45;;;;;;;;;;5074691;28;20043;-71
2022/07/04 01:10:02;;;;;;;10.50;3.00;;;;;;;;;;5073371;28;20044;-72
2022/07/04 01:12:28;;;;;;;7.05;2.85;;;;;;;;;;5080894;28;20032;-71
2022/07/04 01:14:53;;;;;;;8.00;2.95;;;;;;;;;;5083659;28;20051;-71
2022/07/04 01:17:19;;;;;;;8.82;2.70;;;;;;;;;;5071767;28;20064;-71
2022/07/04 01:19:44;;;;;;;7.90;2.90;;;;;;;;;;5076266;28;20054;-72
2022/07/04 01:22:09;;;;;;;9.30;2.83;;;;;;;;;;5079200;28;20020;-71
2022/07/04 01:24:34;;;;;;;7.70;2.83;;;;;;;;;;5086108;28;20054;-71
2022/07/04 01:27:00;;;;;;;6.10;2.58;;;;;;;;;;5082956;28;20019;-71
2022/07/04 01:29:25;;;;;;;5.30;2.60;;;;;;;;;;5080180;28;20029;-72
2022/07/04 01:31:53;;;;;;;9.43;2.53;;;;;;;;;;5085849;28;20035;-71
2022/07/04 01:34:18;;;;;;;8.02;2.97;;;;;;;;;;5081584;28;20027;-71
2022/07/04 01:36:43;;;;;;;5.75;2.75;;;;;;;;;;5084532;28;20024;-71
2022/07/04 01:39:09;;;;;;;5.38;2.33;;;;;;;;;;5084776;28;20060;-71
2022/07/04 01:41:34;;;;;;;5.75;2.42;;;;;;;;;;5084447;28;20013;-71
2022/07/04 01:44:00;;;;;;;4.93;2.42;;;;;;;;;;5080123;28;20013;-71
2022/07/04 01:46:25;;;;;;;7.07;2.58;;;;;;;;;;5088093;28;20059;-71
2022/07/04 01:48:50;;;;;;;6.53;2.60;;;;;;;;;;5088505;28;20577;-71
2022/07/04 01:51:16;;;;;;;5.03;2.33;;;;;;;;;;5079551;28;20027;-71
2022/07/04 01:53:41;;;;;;;7.40;2.78;;;;;;;;;;5082514;28;20036;-71
2022/07/04 01:56:06;;;;;;;6.43;2.45;;;;;;;;;;5079492;28;20487;-71
2022/07/04 01:58:31;;;;;;;10.32;2.60;;;;;;;;;;5086037;28;20024;-71
2022/07/04 02:03:40;;;;;;;4.70;2.40;;;;;;;;;;5077001;28;20028;-71
2022/07/04 02:06:06;;;;;;;5.15;2.50;;;;;;;;;;5076333;28;20037;-71
2022/07/04 02:09:14;;;;;;;4.97;2.17;;;;;;;;;;5080522;28;20012;-71
2022/07/04 02:11:16;;;;;;;8.07;2.45;;;;;;;;;;5080687;28;20506;-71
2022/07/04 02:13:41;;;;;;;9.57;2.55;;;;;;;;;;5090684;28;20032;-71
2022/07/04 02:16:06;;;;;;;6.55;2.35;;;;;;;;;;5083033;28;20013;-71
2022/07/04 02:18:32;;;;;;;4.97;2.53;;;;;;;;;;5083245;28;20020;-71
2022/07/04 02:20:57;;;;;;;6.38;2.60;;;;;;;;;;5084592;28;20024;-71
2022/07/04 02:23:22;;;;;;;6.35;2.28;;;;;;;;;;5094535;28;20019;-71
2022/07/04 02:25:47;;;;;;;6.63;2.40;;;;;;;;;;5078392;28;20368;-71
2022/07/04 02:28:13;;;;;;;7.00;2.42;;;;;;;;;;5084059;28;20055;-71
2022/07/04 02:30:38;;;;;;;7.25;1.83;;;;;;;;;;5081500;28;20013;-71
2022/07/04 02:33:03;;;;;;;5.20;2.42;;;;;;;;;;5079009;28;20028;-71
2022/07/04 02:35:28;;;;;;;5.93;2.60;;;;;;;;;;5079236;28;20518;-71
2022/07/04 02:37:54;;;;;;;6.43;2.65;;;;;;;;;;5078704;28;20012;-71
2022/07/04 02:40:19;;;;;;;7.25;2.38;;;;;;;;;;5079439;28;20120;-71
2022/07/04 02:42:44;;;;;;;6.32;2.67;;;;;;;;;;5079762;28;20074;-71
2022/07/04 02:45:10;;;;;;;4.35;1.92;;;;;;;;;;5075790;28;20016;-71
2022/07/04 02:47:35;;;;;;;5.57;2.13;;;;;;;;;;5083167;28;20019;-71
2022/07/04 02:50:02;;;;;;;5.32;2.17;;;;;;;;;;5080894;28;20122;-71
2022/07/04 02:52:27;;;;;;;3.70;2.05;;;;;;;;;;5087110;28;20095;-71
2022/07/04 02:54:52;;;;;;;6.75;2.40;;;;;;;;;;5079504;28;20114;-71
2022/07/04 02:57:18;;;;;;;6.80;2.35;;;;;;;;;;5074150;28;20025;-71
2022/07/04 02:59:43;;;;;;;5.82;2.42;;;;;;;;;;5079849;28;20386;-71
2022/07/04 03:02:08;;;;;;;7.72;2.30;;;;;;;;;;5085997;28;20049;-71
2022/07/04 03:04:34;;;;;;;5.68;2.53;;;;;;;;;;5081512;28;20570;-71
2022/07/04 03:06:59;;;;;;;5.40;2.00;;;;;;;;;;5075048;28;20100;-71
2022/07/04 03:09:27;;;;;;;5.65;2.50;;;;;;;;;;5074681;28;20017;-71
2022/07/04 03:11:52;;;;;;;6.28;2.45;;;;;;;;;;5074628;28;20032;-71
2022/07/04 03:14:18;;;;;;;8.13;2.70;;;;;;;;;;5081773;28;20013;-72
2022/07/04 03:16:43;;;;;;;5.13;2.15;;;;;;;;;;5073252;28;20017;-72
2022/07/04 03:19:08;;;;;;;9.45;2.30;;;;;;;;;;5075575;28;20040;-71
2022/07/04 03:21:33;;;;;;;6.40;2.33;;;;;;;;;;5075203;28;20016;-71
2022/07/04 03:23:59;;;;;;;3.72;2.00;;;;;;;;;;5079078;28;20027;-71
2022/07/04 03:26:25;;;;;;;5.45;2.20;;;;;;;;;;5073902;28;20111;-71
2022/07/04 03:28:51;;;;;;;5.28;2.25;;;;;;;;;;5082650;28;20007;-71
2022/07/04 03:31:16;;;;;;;6.75;2.10;;;;;;;;;;5078006;28;20478;-71
2022/07/04 03:33:41;;;;;;;8.98;2.30;;;;;;;;;;5080710;28;20106;-71
2022/07/04 03:36:06;;;;;;;5.30;2.28;;;;;;;;;;5080242;28;20027;-71
2022/07/04 03:38:31;;;;;;;6.75;2.28;;;;;;;;;;5084022;28;20128;-71
2022/07/04 03:40:57;;;;;;;4.30;2.33;;;;;;;;;;5076974;28;20369;-71
2022/07/04 03:43:22;;;;;;;4.47;2.28;;;;;;;;;;5081163;28;20414;-71
2022/07/04 03:45:47;;;;;;;4.03;2.08;;;;;;;;;;5075759;28;20377;-71
2022/07/04 03:48:12;;;;;;;6.43;1.85;;;;;;;;;;5076023;28;20549;-71
2022/07/04 03:50:38;;;;;;;7.60;2.10;;;;;;;;;;5081268;28;20038;-71
2022/07/04 03:53:03;;;;;;;4.15;2.13;;;;;;;;;;5082479;28;20023;-71
2022/07/04 03:55:28;;;;;;;8.00;2.47;;;;;;;;;;5082548;28;20031;-71
2022/07/04 03:57:53;;;;;;;4.10;1.67;;;;;;;;;;5081460;28;20028;-71
2022/07/04 04:00:18;;;;;;;6.00;1.85;;;;;;;;;;5078237;28;20054;-71
2022/07/04 04:02:44;;;;;;;7.65;2.33;;;;;;;;;;5071260;28;20025;-71
2022/07/04 04:05:27;;;;;;;4.10;2.03;;;;;;;;;;5078154;28;20063;-71
2022/07/04 04:07:55;;;;;;;5.18;2.25;;;;;;;;;;5073911;28;20020;-71
2022/07/04 04:10:20;;;;;;;4.30;2.10;;;;;;;;;;5063784;28;20063;-71
2022/07/04 04:12:46;;;;;;;3.78;2.00;;;;;;;;;;5084056;28;20413;-71
2022/07/04 04:15:11;;;;;;;6.07;1.70;;;;;;;;;;5085707;28;20065;-71
2022/07/04 04:17:36;;;;;;;3.00;1.75;;;;;;;;;;5076231;28;20081;-71
2022/07/04 04:20:01;;;;;;;6.28;1.88;;;;;;;;;;5080849;28;20047;-71
2022/07/04 04:22:30;;;;;;;3.38;1.85;;;;;;;;;;5065343;28;20043;-71
2022/07/04 04:24:55;;;;;;;4.68;1.77;;;;;;;;;;5081334;28;20380;-70
2022/07/04 04:27:20;;;;;;;4.50;1.67;;;;;;;;;;5075092;28;20017;-71
2022/07/04 04:29:45;;;;;;;2.22;1.45;;;;;;;;;;5078403;28;20464;-71
2022/07/04 04:32:11;;;;;;;4.40;2.05;;;;;;;;;;5082173;28;20483;-71
2022/07/04 04:34:36;;;;;;;5.60;1.88;;;;;;;;;;5077888;28;20013;-71
2022/07/04 04:37:01;;;;;;;2.80;1.52;;;;;;;;;;5075764;28;20462;-71
2022/07/04 04:39:27;;;;;;;6.38;1.95;;;;;;;;;;5090676;28;20196;-71
2022/07/04 04:41:52;;;;;;;3.20;1.60;;;;;;;;;;5076088;28;20106;-71
2022/07/04 04:44:19;;;;;;;3.95;1.70;;;;;;;;;;5083795;28;20099;-71
2022/07/04 04:46:44;;;;;;;3.10;1.67;;;;;;;;;;5076610;28;20110;-71
2022/07/04 04:49:09;;;;;;;6.90;1.70;;;;;;;;;;5083821;28;20032;-71
2022/07/04 04:51:34;;;;;;;2.67;1.58;;;;;;;;;;5076689;28;20020;-71
2022/07/04 04:54:00;;;;;;;3.78;1.30;;;;;;;;;;5082256;28;20025;-71
2022/07/04 04:56:25;;;;;;;63.17;4.22;;;;;;;;;;5074562;28;20069;-71
2022/07/04 04:58:50;;;;;;;70.10;4.10;;;;;;;;;;5080744;28;20488;-72
2022/07/04 05:01:15;;;;;;;118.63;7.00;;;;;;;;;;5079211;28;20064;-72
2022/07/04 05:03:41;;;;;;;10.75;1.35;;;;;;;;;;5075934;28;20452;-72
2022/07/04 05:06:06;;;;;;;2.58;0.73;;;;;;;;;;5079536;28;20384;-71
2022/07/04 05:08:31;;;;;;;2.60;1.00;;;;;;;;;;5079100;28;20028;-72
2022/07/04 05:10:56;;;;;;;4.63;1.48;;;;;;;;;;5076537;28;20021;-71
2022/07/04 05:13:21;;;;;;;1.65;0.82;;;;;;;;;;5088811;28;20028;-72
2022/07/04 05:15:47;;;;;;;2.40;1.00;;;;;;;;;;5085374;28;20107;-72
2022/07/04 05:18:12;;;;;;;3.58;0.98;;;;;;;;;;5079857;28;20028;-72
2022/07/04 05:20:39;;;;;;;2.13;0.90;;;;;;;;;;5078026;28;20050;-72
2022/07/04 05:23:04;;;;;;;5.63;0.80;;;;;;;;;;5087153;28;20024;-73
2022/07/04 05:25:29;;;;;;;1.50;0.93;;;;;;;;;;5088718;28;20427;-71
2022/07/04 05:27:54;;;;;;;1.42;0.80;;;;;;;;;;5081316;28;20021;-71
2022/07/04 05:30:20;;;;;;;5.15;1.05;;;;;;;;;;5081821;28;20451;-72
2022/07/04 05:32:45;;;;;;;1.40;0.70;;;;;;;;;;5082683;28;20418;-72
2022/07/04 05:35:10;;;;;;;1.70;0.80;;;;;;;;;;5078465;28;20390;-71
2022/07/04 05:37:35;;;;;;;3.75;0.90;;;;;;;;;;5076518;28;20481;-72
2022/07/04 05:40:01;;;;;;;4.85;0.95;;;;;;;;;;5071629;28;20106;-72
2022/07/04 05:42:27;;;;;;;3.72;0.95;;;;;;;;;;5086619;28;20091;-72
2022/07/04 05:44:52;;;;;;;2.15;1.00;;;;;;;;;;5087675;28;20028;-72
2022/07/04 05:47:18;;;;;;;2.00;0.90;;;;;;;;;;5076240;28;20025;-72
2022/07/04 05:49:43;;;;;;;2.97;0.80;;;;;;;;;;5082229;28;20031;-72
2022/07/04 05:52:08;;;;;;;4.03;0.90;;;;;;;;;;5088858;28;20028;-72
2022/07/04 05:54:34;;;;;;;2.00;0.93;;;;;;;;;;5094687;28;20482;-72
2022/07/04 05:56:59;;;;;;;1.73;0.80;;;;;;;;;;5079517;28;20423;-72
2022/07/04 05:59:24;;;;;;;1.65;0.80;;;;;;;;;;5095297;28;20050;-72
2022/07/04 06:01:49;;;;;;;3.08;1.13;;;;;;;;;;5078507;28;20021;-72
2022/07/04 06:04:14;;;;;;;2.92;0.98;;;;;;;;;;5078701;28;20029;-72
2022/07/04 06:06:40;;;;;;;2.13;1.10;;;;;;;;;;5078059;28;20032;-72
2022/07/04 06:09:05;;;;;;;4.32;0.98;;;;;;;;;;5079471;28;20053;-72
2022/07/04 06:11:30;;;;;;;2.67;0.93;;;;;;;;;;5078418;28;20024;-72
2022/07/04 06:13:55;;;;;;;2.55;0.90;;;;;;;;;;5091937;28;20082;-72
2022/07/04 06:16:21;;;;;;;2.38;1.05;;;;;;;;;;5063546;28;20020;-72
2022/07/04 06:18:46;;;;;;;3.10;0.80;;;;;;;;;;5083833;28;20550;-73
2022/07/04 06:21:12;;;;;;;2.75;0.95;;;;;;;;;;5078895;28;20043;-73
2022/07/04 06:23:37;;;;;;;1.73;0.85;;;;;;;;;;5079386;28;20036;-73
2022/07/04 06:26:02;;;;;;;0.82;0.60;;;;;;;;;;5075434;28;20020;-73
2022/07/04 06:28:28;;;;;;;1.33;0.80;;;;;;;;;;5080740;28;20031;-73
2022/07/04 06:30:53;;;;;;;1.25;0.70;;;;;;;;;;5081319;28;20384;-73
2022/07/04 06:33:18;;;;;;;3.58;0.80;;;;;;;;;;5076823;28;20032;-73
2022/07/04 06:35:54;;;;;;;4.65;0.82;;;;;;;;;;5078135;28;20463;-73
2022/07/04 06:38:21;;;;;;;1.75;0.70;;;;;;;;;;5074871;28;20045;-73
2022/07/04 06:40:46;;;;;;;2.40;0.90;;;;;;;;;;5078724;28;20384;-72
2022/07/04 06:43:12;;;;;;;2.65;0.93;;;;;;;;;;5077988;28;20028;-70
2022/07/04 06:45:37;;;;;;;1.42;0.70;;;;;;;;;;5083274;28;20036;-70
2022/07/04 06:48:06;;;;;;;5.40;0.90;;;;;;;;;;5076883;28;20028;-71
2022/07/04 06:50:32;;;;;;;4.57;0.95;;;;;;;;;;5086808;28;20021;-71
2022/07/04 06:53:04;;;;;;;3.20;1.00;;;;;;;;;;5075206;28;20100;-71
2022/07/04 06:55:29;;;;;;;1.42;0.88;;;;;;;;;;5084908;28;20035;-71
2022/07/04 06:57:55;;;;;;;2.03;0.80;;;;;;;;;;5085316;28;20017;-71
2022/07/04 07:00:20;;;;;;;4.95;1.13;;;;;;;;;;5077852;28;20059;-72
2022/07/04 07:02:45;;;;;;;3.55;1.00;;;;;;;;;;5076171;28;20157;-71
2022/07/04 07:05:10;;;;;;;4.00;1.00;;;;;;;;;;5078839;28;20069;-71
2022/07/04 07:07:36;;;;;;;4.27;1.20;;;;;;;;;;5075581;28;20027;-72
2022/07/04 07:10:02;;;;;;;3.13;1.00;;;;;;;;;;5073896;28;20277;-71
2022/07/04 07:12:28;;;;;;;2.90;1.20;;;;;;;;;;5075847;28;20021;-71
2022/07/04 07:14:54;;;;;;;3.22;1.20;;;;;;;;;;5076807;28;20028;-71
2022/07/04 07:17:19;;;;;;;4.60;1.13;;;;;;;;;;5081456;28;20038;-71
2022/07/04 07:19:45;;;;;;;3.42;0.98;;;;;;;;;;5075789;28;20379;-72
2022/07/04 07:22:11;;;;;;;3.20;0.93;;;;;;;;;;5075396;28;20020;-72
2022/07/04 07:24:36;;;;;;;3.78;1.10;;;;;;;;;;5074348;28;20021;-71
2022/07/04 07:27:02;;;;;;;3.75;0.75;;;;;;;;;;5081402;28;20456;-72
2022/07/04 07:29:27;;;;;;;4.07;1.10;;;;;;;;;;5082777;28;20115;-72
2022/07/04 07:31:52;;;;;;;4.25;1.00;;;;;;;;;;5086669;28;20039;-72
2022/07/04 07:34:18;;;;;;;4.97;1.50;;;;;;;;;;5080045;28;20349;-71
2022/07/04 07:36:43;;;;;;;2.13;0.90;;;;;;;;;;5080310;28;20050;-71
2022/07/04 07:39:08;;;;;;;4.88;0.98;;;;;;;;;;5074023;28;20082;-71
2022/07/04 07:41:34;;;;;;;2.50;0.75;;;;;;;;;;5073419;28;20095;-73
2022/07/04 07:43:59;;;;;;;3.97;1.05;;;;;;;;;;5072075;28;20033;-73
2022/07/04 07:46:24;;;;;;;2.78;0.93;;;;;;;;;;5076643;28;20032;-73
2022/07/04 07:48:50;;;;;;;5.28;0.95;;;;;;;;;;5065538;28;20384;-73
2022/07/04 07:51:16;;;;;;;10.30;0.95;;;;;;;;;;5079591;28;20026;-73
2022/07/04 07:53:41;;;;;;;3.50;0.80;;;;;;;;;;5084423;28;20043;-73
2022/07/04 07:56:07;;;;;;;7.95;1.10;;;;;;;;;;5085857;28;20016;-73
2022/07/04 07:58:32;;;;;;;7.80;1.08;;;;;;;;;;5073473;28;20031;-73
2022/07/04 08:00:57;;;;;;;1.88;0.90;;;;;;;;;;5082791;28;20028;-73
2022/07/04 08:06:07;;;;;;;4.07;1.05;;;;;;;;;;5064501;28;20023;-73
2022/07/04 08:08:32;;;;;;;4.30;0.95;;;;;;;;;;5078515;28;20110;-72
2022/07/04 08:10:57;;;;;;;3.10;0.90;;;;;;;;;;5077602;28;20025;-72
2022/07/04 08:13:22;;;;;;;2.85;0.90;;;;;;;;;;5074445;28;20460;-73
2022/07/04 08:15:48;;;;;;;3.10;0.80;;;;;;;;;;5074641;28;20475;-73
2022/07/04 08:18:13;;;;;;;4.70;2.05;;;;;;;;;;5077444;28;20028;-72
2022/07/04 08:20:38;;;;;;;2.63;0.80;;;;;;;;;;5082271;28;20050;-72
2022/07/04 08:23:03;;;;;;;4.47;0.90;;;;;;;;;;5089028;28;20118;-72
2022/07/04 08:25:29;;;;;;;4.82;1.13;;;;;;;;;;5064831;28;20017;-72
2022/07/04 08:27:54;;;;;;;2.00;0.80;;;;;;;;;;5077424;28;20047;-72
2022/07/04 08:30:19;;;;;;;3.55;0.98;;;;;;;;;;5076851;28;20040;-72
2022/07/04 08:32:44;;;;;;;3.33;0.77;;;;;;;;;;5072718;28;20035;-73
2022/07/04 08:35:09;;;;;;;2.00;0.85;;;;;;;;;;5076368;28;20021;-72
2022/07/04 08:37:35;;;;;;;2.95;0.90;;;;;;;;;;5089712;28;20035;-73
2022/07/04 08:40:06;;;;;;;2.58;0.95;;;;;;;;;;5057751;28;20556;-73
2022/07/04 08:42:35;;;;;;;4.18;0.80;;;;;;;;;;5065050;28;20035;-73
2022/07/04 08:45:01;;;;;;;6.57;1.00;;;;;;;;;;5071552;28;20036;-72
2022/07/04 08:47:27;;;;;;;2.83;0.80;;;;;;;;;;5081761;28;20020;-72
2022/07/04 08:50:01;;;;;;;2.15;0.80;;;;;;;;;;5078663;28;20112;-72
2022/07/04 08:52:36;;;;;;;6.22;1.40;;;;;;;;;;5067463;28;20368;-72
2022/07/04 09:00:29;;;;;;;2.70;0.90;;;;;;;;;;5056978;28;20067;-73
2022/07/04 09:02:55;;;;;;;3.45;1.10;;;;;;;;;;5065374;28;20056;-73
2022/07/04 09:05:21;;;;;;;2.28;0.90;;;;;;;;;;5073704;28;20380;-73
2022/07/04 09:07:47;;;;;;;4.78;1.13;;;;;;;;;;5075283;28;20028;-73
2022/07/04 09:10:13;;;;;;;3.17;0.90;;;;;;;;;;5072960;28;20150;-73
2022/07/04 09:12:38;;;;;;;4.50;1.20;;;;;;;;;;5073556;28;20115;-73
2022/07/04 09:15:05;;;;;;;3.05;1.02;;;;;;;;;;5070827;28;20091;-73
2022/07/04 09:17:32;;;;;;;3.00;0.82;;;;;;;;;;5072812;28;20032;-73
2022/07/04 09:20:16;;;;;;;2.88;0.90;;;;;;;;;;5070174;28;20031;-73
2022/07/04 09:22:41;;;;;;;3.40;0.90;;;;;;;;;;5085003;28;20032;-73
2022/07/04 09:25:07;;;;;;;4.15;1.00;;;;;;;;;;5074269;28;20480;-73
2022/07/04 09:27:33;;;;;;;4.35;1.00;;;;;;;;;;5072979;28;20518;-73
2022/07/04 09:29:59;;;;;;;3.03;1.00;;;;;;;;;;5081420;28;20114;-73
2022/07/04 09:32:45;;;;;;;2.85;0.80;;;;;;;;;;5069462;28;20037;-73
2022/07/04 09:35:11;;;;;;;2.63;0.90;;;;;;;;;;5077706;28;20083;-73
2022/07/04 09:37:37;;;;;;;2.97;0.90;;;;;;;;;;5078126;28;20044;-73
2022/07/04 09:40:04;;;;;;;3.53;0.95;;;;;;;;;;5077062;28;20131;-72
2022/07/04 09:42:39;;;;;;;4.18;1.10;;;;;;;;;;5059601;28;20032;-72
2022/07/04 09:45:06;;;;;;;3.15;1.20;;;;;;;;;;5087059;28;20060;-73
2022/07/04 09:47:31;;;;;;;2.97;1.40;;;;;;;;;;5078989;28;20071;-73
2022/07/04 09:50:01;;;;;;;3.63;1.20;;;;;;;;;;5077240;28;20040;-72
2022/07/04 09:52:27;;;;;;;3.97;1.20;;;;;;;;;;5082454;28;20464;-72
2022/07/04 09:54:56;;;;;;;2.75;0.80;;;;;;;;;;5083268;28;20088;-73
2022/07/04 09:57:22;;;;;;;3.42;1.10;;;;;;;;;;5078001;28;20033;-73
2022/07/04 09:59:47;;;;;;;7.28;1.00;;;;;;;;;;5086736;28;20024;-71
2022/07/04 10:02:13;;;;;;;3.25;1.20;;;;;;;;;;5081381;28;20032;-71
2022/07/04 10:04:45;;;;;;;3.05;1.00;;;;;;;;;;5090813;28;20043;-71
2022/07/04 10:07:10;;;;;;;3.30;1.10;;;;;;;;;;5077762;28;20016;-72
2022/07/04 10:09:35;;;;;;;2.70;1.17;;;;;;;;;;5088837;28;20357;-71
2022/07/04 10:12:01;;;;;;;3.07;1.00;;;;;;;;;;5090030;28;20122;-72
2022/07/04 10:14:27;;;;;;;5.32;0.90;;;;;;;;;;5082370;28;20326;-74
2022/07/04 10:16:52;;;;;;;2.53;0.98;;;;;;;;;;5082467;28;20028;-74
2022/07/04 10:19:18;;;;;;;3.25;1.00;;;;;;;;;;5084131;28;20058;-74
2022/07/04 10:21:44;;;;;;;1.92;1.13;;;;;;;;;;5082493;28;20020;-74
2022/07/04 10:24:09;;;;;;;1.92;0.98;;;;;;;;;;5079760;28;20024;-74
2022/07/04 10:26:34;;;;;;;3.50;1.20;;;;;;;;;;5078891;28;20077;-74
2022/07/04 10:29:00;;;;;;;1.35;0.77;;;;;;;;;;5077755;28;20399;-72
2022/07/04 10:31:26;;;;;;;4.50;1.10;;;;;;;;;;5081772;28;20465;-72
2022/07/04 10:33:52;;;;;;;4.00;1.30;;;;;;;;;;5079597;28;21280;-74
2022/07/04 10:36:21;;;;;;;2.00;0.85;;;;;;;;;;5082376;28;20048;-73
2022/07/04 10:38:48;;;;;;;2.83;0.90;;;;;;;;;;5075134;28;20128;-74
2022/07/04 10:41:14;;;;;;;3.03;0.75;;;;;;;;;;5086161;28;20061;-74
2022/07/04 10:43:49;;;;;;;2.55;0.88;;;;;;;;;;5076558;28;20124;-74
2022/07/04 10:46:17;;;;;;;4.78;0.88;;;;;;;;;;5069034;28;20070;-74
2022/07/04 10:48:48;;;;;;;1.88;0.73;;;;;;;;;;5081679;28;20070;-73
2022/07/04 10:51:15;;;;;;;2.33;0.90;;;;;;;;;;5083131;28;20038;-73
2022/07/04 10:54:00;;;;;;;4.50;1.02;;;;;;;;;;5081649;28;20036;-73
2022/07/04 10:56:25;;;;;;;2.85;0.90;;;;;;;;;;5084852;28;20078;-73
2022/07/04 10:58:50;;;;;;;4.53;1.00;;;;;;;;;;5071435;28;20280;-73
2022/07/04 11:01:16;;;;;;;2.22;0.70;;;;;;;;;;5069420;28;20017;-73
2022/07/04 11:03:45;;;;;;;1.40;0.85;;;;;;;;;;5078350;28;20028;-73
2022/07/04 11:06:29;;;;;;;1.40;0.70;;;;;;;;;;5076360;28;20044;-73
2022/07/04 11:09:14;;;;;;;0.95;0.70;;;;;;;;;;5075191;28;20051;-73
2022/07/04 11:11:50;;;;;;;1.75;0.75;;;;;;;;;;5079446;28;20039;-73
2022/07/04 11:14:33;;;;;;;2.00;0.85;;;;;;;;;;5073341;28;20107;-73
2022/07/04 11:16:59;;;;;;;2.00;0.80;;;;;;;;;;5084318;28;20024;-73
2022/07/04 11:19:24;;;;;;;2.72;0.70;;;;;;;;;;5077499;28;20028;-73
2022/07/04 11:21:49;;;;;;;1.95;0.70;;;;;;;;;;5074712;28;20028;-73
2022/07/04 11:24:15;;;;;;;3.15;0.95;;;;;;;;;;5070438;28;20020;-74
2022/07/04 11:26:40;;;;;;;1.85;0.90;;;;;;;;;;5071419;28;20043;-73
2022/07/04 11:29:05;;;;;;;2.20;0.88;;;;;;;;;;5084633;28;20044;-73
2022/07/04 11:31:37;;;;;;;1.65;0.80;;;;;;;;;;5088525;28;20103;-73
2022/07/04 11:34:03;;;;;;;2.63;0.93;;;;;;;;;;5073716;28;20039;-73
2022/07/04 11:36:28;;;;;;;2.35;0.85;;;;;;;;;;5082361;28;20032;-73
2022/07/04 11:38:57;;;;;;;1.85;0.73;;;;;;;;;;5082195;28;20577;-73
2022/07/04 11:47:01;;;;;;;1.77;0.80;;;;;;;;;;5082357;28;20051;-73
2022/07/04 11:49:26;;;;;;;2.95;1.00;;;;;;;;;;5074937;28;20040;-73
2022/07/04 11:51:55;;;;;;;5.85;0.80;;;;;;;;;;5072756;28;20051;-73
2022/07/04 11:54:20;;;;;;;3.45;0.85;;;;;;;;;;5071695;28;20024;-73
2022/07/04 11:56:46;;;;;;;2.65;0.80;;;;;;;;;;5070701;28;20040;-73
2022/07/04 11:59:12;;;;;;;2.90;0.80;;;;;;;;;;5072761;28;20036;-73
2022/07/04 12:01:38;;;;;;;3.50;0.88;;;;;;;;;;5067308;28;20487;-73
2022/07/04 12:04:13;;;;;;;2.65;0.80;;;;;;;;;;5069372;28;20037;-73
2022/07/04 12:06:38;;;;;;;1.98;0.77;;;;;;;;;;5070795;28;20467;-73
2022/07/04 12:09:04;;;;;;;2.38;0.70;;;;;;;;;;5071325;28;20040;-73
2022/07/04 12:11:48;;;;;;;1.17;0.70;;;;;;;;;;5079003;28;20016;-73
2022/07/04 12:14:13;;;;;;;1.45;0.70;;;;;;;;;;5075877;28;20028;-73
2022/07/04 12:16:39;;;;;;;5.95;0.80;;;;;;;;;;5084580;28;20098;-73
2022/07/04 12:19:10;;;;;;;1.38;0.90;;;;;;;;;;5083633;28;20020;-73
2022/07/04 12:21:35;;;;;;;3.40;0.90;;;;;;;;;;5068050;28;20479;-73
2022/07/04 12:24:02;;;;;;;1.58;0.60;;;;;;;;;;5081408;28;20040;-73
2022/07/04 12:26:28;;;;;;;1.90;0.75;;;;;;;;;;5079557;28;20012;-73
2022/07/04 12:28:53;;;;;;;1.27;0.70;;;;;;;;;;5088139;28;20532;-73
2022/07/04 12:31:18;;;;;;;0.98;0.60;;;;;;;;;;5078731;28;20024;-73
2022/07/04 12:33:54;;;;;;;2.28;0.90;;;;;;;;;;5065411;28;20429;-73
2022/07/04 12:36:19;;;;;;;2.35;0.88;;;;;;;;;;5082502;28;20021;-73
2022/07/04 12:38:44;;;;;;;1.58;0.70;;;;;;;;;;5074806;28;20036;-73
2022/07/04 12:41:15;;;;;;;1.98;0.90;;;;;;;;;;5074005;28;20053;-73
2022/07/04 12:43:43;;;;;;;1.52;0.80;;;;;;;;;;5077881;28;20494;-73
2022/07/04 12:46:10;;;;;;;1.75;0.70;;;;;;;;;;5079664;28;20059;-73
2022/07/04 12:48:35;;;;;;;2.92;0.73;;;;;;;;;;5074108;28;20452;-73
2022/07/04 12:51:15;;;;;;;3.28;0.90;;;;;;;;;;5075941;28;20115;-73
2022/07/04 12:53:41;;;;;;;1.23;0.73;;;;;;;;;;5071171;28;20480;-73
2022/07/04 12:56:07;;;;;;;1.35;0.60;;;;;;;;;;5079990;28;20502;-72
2022/07/04 12:58:32;;;;;;;1.30;0.65;;;;;;;;;;5072458;28;20025;-73
2022/07/04 13:00:57;;;;;;;1.60;0.80;;;;;;;;;;5080338;28;20090;-74
2022/07/04 13:03:23;;;;;;;1.55;0.70;;;;;;;;;;5077732;28;20521;-72
2022/07/04 13:05:48;;;;;;;1.98;0.80;;;;;;;;;;5078027;28;20033;-73
2022/07/04 13:08:13;;;;;;;3.78;0.80;;;;;;;;;;5072911;28;20107;-73
2022/07/04 13:10:39;;;;;;;1.73;0.70;;;;;;;;;;5071850;28;20036;-73
2022/07/04 13:13:04;;;;;;;1.52;0.80;;;;;;;;;;5075538;28;20027;-74
2022/07/04 13:15:29;;;;;;;1.15;0.70;;;;;;;;;;5086989;28;20019;-73
2022/07/04 13:17:55;;;;;;;1.30;0.65;;;;;;;;;;5083595;28;20030;-73
2022/07/04 13:20:20;;;;;;;0.77;0.60;;;;;;;;;;5082688;28;20169;-73
2022/07/04 13:22:45;;;;;;;1.20;0.80;;;;;;;;;;5087045;28;20062;-73
2022/07/04 13:25:10;;;;;;;1.35;0.70;;;;;;;;;;5089475;28;20024;-74
2022/07/04 13:27:36;;;;;;;1.85;0.73;;;;;;;;;;5089775;28;20055;-73
2022/07/04 13:30:02;;;;;;;1.60;0.63;;;;;;;;;;5086757;28;20479;-73
2022/07/04 13:32:27;;;;;;;0.73;0.50;;;;;;;;;;5087470;28;20407;-73
2022/07/04 13:34:52;;;;;;;1.67;0.70;;;;;;;;;;5078665;28;20036;-73
2022/07/04 13:37:18;;;;;;;1.13;0.70;;;;;;;;;;5076849;28;20027;-73
2022/07/04 13:39:44;;;;;;;1.92;0.88;;;;;;;;;;5078245;28;20051;-73
2022/07/04 13:42:09;;;;;;;1.13;0.60;;;;;;;;;;5082778;28;20028;-73
2022/07/04 13:44:34;;;;;;;1.10;0.70;;;;;;;;;;5078830;28;20095;-73
2022/07/04 13:46:59;;;;;;;1.20;0.70;;;;;;;;;;5076003;28;20062;-73
2022/07/04 13:49:25;;;;;;;1.38;0.70;;;;;;;;;;5079899;28;20033;-73
2022/07/04 13:51:51;;;;;;;1.70;0.82;;;;;;;;;;5077340;28;20065;-73
2022/07/04 13:54:16;;;;;;;3.95;0.90;;;;;;;;;;5072785;28;20024;-73
2022/07/04 13:56:42;;;;;;;0.93;0.60;;;;;;;;;;5078151;28;20031;-73
2022/07/04 13:59:07;;;;;;;0.90;0.60;;;;;;;;;;5077727;28;20101;-73
2022/07/04 14:01:33;;;;;;;1.17;0.60;;;;;;;;;;5081934;28;20106;-73
2022/07/04 14:03:58;;;;;;;3.90;0.73;;;;;;;;;;5077964;28;20040;-73
2022/07/04 14:06:24;;;;;;;5.95;1.00;;;;;;;;;;5081876;28;20128;-73
2022/07/04 14:08:49;;;;;;;0.95;0.63;;;;;;;;;;5081261;28;20071;-73
2022/07/04 14:11:14;;;;;;;1.13;0.60;;;;;;;;;;5085636;28;20742;-73
2022/07/04 14:13:40;;;;;;;1.45;0.55;;;;;;;;;;5086943;28;20016;-73
2022/07/04 14:16:06;;;;;;;0.98;0.50;;;;;;;;;;5074069;28;20036;-73
2022/07/04 14:18:31;;;;;;;2.33;0.80;;;;;;;;;;5075743;28;20032;-73
2022/07/04 14:20:57;;;;;;;0.82;0.60;;;;;;;;;;5081225;28;20024;-73
2022/07/04 14:23:41;;;;;;;0.80;0.60;;;;;;;;;;5079248;28;20025;-73
2022/07/04 14:26:06;;;;;;;1.73;0.68;;;;;;;;;;5076502;28;20028;-73
2022/07/04 14:28:32;;;;;;;1.15;0.77;;;;;;;;;;5089439;28;20463;-72
2022/07/04 14:30:57;;;;;;;1.50;0.60;;;;;;;;;;5090171;28;21054;-73
2022/07/04 14:33:23;;;;;;;0.70;0.60;;;;;;;;;;5085794;28;20027;-73
2022/07/04 14:35:48;;;;;;;3.13;0.80;;;;;;;;;;5081240;28;20039;-73
2022/07/04 14:38:13;;;;;;;1.35;0.70;;;;;;;;;;5088591;28;20044;-73
2022/07/04 14:40:38;;;;;;;0.95;0.70;;;;;;;;;;5084761;28;20016;-73
2022/07/04 14:43:04;;;;;;;1.27;0.57;;;;;;;;;;5071931;28;20028;-73
2022/07/04 14:45:30;;;;;;;1.00;0.57;;;;;;;;;;5085620;28;20500;-73
2022/07/04 14:47:55;;;;;;;1.05;0.68;;;;;;;;;;5089109;28;20016;-72
2022/07/04 14:50:20;;;;;;;1.55;0.70;;;;;;;;;;5082520;28;20499;-73
2022/07/04 14:52:46;;;;;;;1.67;0.80;;;;;;;;;;5086938;28;20039;-73
2022/07/04 14:55:11;;;;;;;2.25;1.08;;;;;;;;;;5079783;28;20017;-73